createdAt,value
2023-11-18T00:00:18.562Z,102512.16
2023-11-18T00:03:22.487Z,102512.16
2023-11-18T00:06:26.294Z,102515.06
2023-11-18T00:09:31.314Z,102512.34
2023-11-18T00:12:36.250Z,102509.78
2023-11-18T00:15:39.914Z,102515.16
2023-11-18T00:18:44.013Z,102516.78
2023-11-18T00:21:47.685Z,102527.25
2023-11-18T00:24:53.431Z,102528.94
2023-11-18T00:27:57.062Z,102540.88
2023-11-18T00:31:00.902Z,102533.84
2023-11-18T00:34:04.653Z,102531.47
2023-11-18T00:37:09.288Z,102537.41
2023-11-18T00:40:14.450Z,102549.53
2023-11-18T00:43:18.173Z,102551.97
2023-11-18T00:46:21.798Z,102561.69
2023-11-18T00:49:27.214Z,102567.56
2023-11-18T00:52:30.909Z,102574.78
2023-11-18T00:55:36.068Z,102584.66
2023-11-18T00:58:41.515Z,102589.81
2023-11-18T01:01:45.564Z,102584.22
2023-11-18T01:04:49.358Z,102598.91
2023-11-18T01:07:53.056Z,102599.16
2023-11-18T01:10:58.100Z,102607.56
2023-11-18T01:14:01.937Z,102602.78
2023-11-18T01:17:06.641Z,102598.06
2023-11-18T01:20:12.108Z,102609.63
2023-11-18T01:23:16.025Z,102606.69
2023-11-18T01:26:21.660Z,102608.50
2023-11-18T01:29:25.568Z,102613.91
2023-11-18T01:32:31.019Z,102615.88
2023-11-18T01:35:34.768Z,102623.09
2023-11-18T01:38:38.818Z,102622.28
2023-11-18T01:41:44.264Z,102623.44
2023-11-18T01:44:48.603Z,102621.88
2023-11-18T01:47:53.220Z,102616.94
2023-11-18T01:51:00.368Z,102622.59
2023-11-18T01:54:06.635Z,102626.84
2023-11-18T01:57:12.311Z,102629.72
2023-11-18T02:00:19.108Z,102629.34
2023-11-18T02:03:23.769Z,102627.91
2023-11-18T02:06:28.114Z,102628.31
2023-11-18T02:09:32.337Z,102630.91
2023-11-18T02:12:49.799Z,102626.06
2023-11-18T02:15:58.294Z,102626.97
2023-11-18T02:19:04.138Z,102615.94
2023-11-18T02:22:10.576Z,102604.66
2023-11-18T02:25:19.286Z,102603.78
2023-11-18T02:28:24.853Z,102604.97
2023-11-18T02:31:38.741Z,102603.56
2023-11-18T02:34:52.725Z,102602.78
2023-11-18T02:37:57.863Z,102597.38
2023-11-18T02:41:08.139Z,102603.06
2023-11-18T02:44:18.617Z,102582.63
2023-11-18T02:47:23.103Z,102582.91
2023-11-18T02:50:28.548Z,102578.84
2023-11-18T02:53:34.482Z,102583.25
2023-11-18T02:56:38.149Z,102580.81
2023-11-18T02:59:43.236Z,102580.47
2023-11-18T03:02:48.267Z,102574.38
2023-11-18T03:05:51.979Z,102581.31
2023-11-18T03:08:55.658Z,102586.78
2023-11-18T03:12:00.660Z,102578.84
2023-11-18T03:15:10.362Z,102586.34
2023-11-18T03:18:14.131Z,102584.72
2023-11-18T03:21:18.001Z,102583.16
2023-11-18T03:24:21.879Z,102591.88
2023-11-18T03:27:25.744Z,102589.97
2023-11-18T03:30:31.168Z,102583.88
2023-11-18T03:33:35.929Z,102590.91
2023-11-18T03:36:39.614Z,102590.59
2023-11-18T03:39:43.357Z,102587.69
2023-11-18T03:42:47.658Z,102591.78
2023-11-18T03:45:53.521Z,102594.53
2023-11-18T03:48:57.247Z,102593.72
2023-11-18T03:52:00.930Z,102587.31
2023-11-18T03:55:06.276Z,102593.50
2023-11-18T03:58:10.342Z,102592.75
2023-11-18T04:01:22.857Z,102595.09
2023-11-18T04:04:26.538Z,102587.50
2023-11-18T04:07:30.944Z,102582.22
2023-11-18T04:10:34.615Z,102577.88
2023-11-18T04:13:38.370Z,102570.44
2023-11-18T04:16:43.447Z,102568.72
2023-11-18T04:19:48.134Z,102570.75
2023-11-18T04:22:51.940Z,102565.56
2023-11-18T04:25:55.737Z,102571.66
2023-11-18T04:28:59.574Z,102569.94
2023-11-18T04:32:04.788Z,102566.38
2023-11-18T04:35:11.220Z,102561.25
2023-11-18T04:38:15.062Z,102562.31
2023-11-18T04:41:18.631Z,102546.22
2023-11-18T04:44:22.532Z,102550.78
2023-11-18T04:47:28.213Z,102551.63
2023-11-18T04:50:33.198Z,102559.97
2023-11-18T04:53:36.836Z,102567.81
2023-11-18T04:56:40.490Z,102574.13
2023-11-18T04:59:45.056Z,102560.00
2023-11-18T05:02:50.650Z,102550.47
2023-11-18T05:05:57.741Z,102555.72
2023-11-18T05:09:02.542Z,102549.00
2023-11-18T05:12:08.062Z,102532.69
2023-11-18T05:15:12.085Z,102529.50
2023-11-18T05:18:17.991Z,102526.97
2023-11-18T05:21:22.812Z,102521.88
2023-11-18T05:24:26.546Z,102517.41
2023-11-18T05:27:30.448Z,102512.13
2023-11-18T05:30:34.307Z,102509.66
2023-11-18T05:33:39.373Z,102521.72
2023-11-18T05:36:43.088Z,102513.81
2023-11-18T05:39:46.751Z,102501.59
2023-11-18T05:42:53.130Z,102499.09
2023-11-18T05:46:12.730Z,102500.66
2023-11-18T05:49:17.784Z,102514.44
2023-11-18T05:52:22.167Z,102512.03
2023-11-18T05:55:25.950Z,102507.44
2023-11-18T05:58:29.981Z,102509.25
2023-11-18T06:01:33.771Z,102525.75
2023-11-18T06:04:39.523Z,102534.31
2023-11-18T06:07:44.577Z,102539.81
2023-11-18T06:10:48.364Z,102535.56
2023-11-18T06:13:53.936Z,102538.38
2023-11-18T06:16:57.729Z,102544.56
2023-11-18T06:20:02.866Z,102546.16
2023-11-18T06:23:07.944Z,102542.91
2023-11-18T06:26:12.368Z,102545.25
2023-11-18T06:29:16.821Z,102538.53
2023-11-18T06:32:20.579Z,102545.59
2023-11-18T06:35:26.149Z,102543.72
2023-11-18T06:38:31.616Z,102559.41
2023-11-18T06:41:38.067Z,102556.31
2023-11-18T06:44:41.794Z,102564.13
2023-11-18T06:47:46.731Z,102569.38
2023-11-18T06:50:52.169Z,102578.97
2023-11-18T06:53:57.315Z,102577.38
2023-11-18T06:57:00.980Z,102574.88
2023-11-18T07:00:09.620Z,102575.66
2023-11-18T07:03:13.440Z,102583.47
2023-11-18T07:06:23.856Z,102585.31
2023-11-18T07:09:27.642Z,102578.47
2023-11-18T07:12:31.360Z,102565.38
2023-11-18T07:15:34.972Z,102564.44
2023-11-18T07:18:41.624Z,102568.81
2023-11-18T07:21:48.051Z,102569.81
2023-11-18T07:24:52.687Z,102571.75
2023-11-18T07:27:57.315Z,102583.66
2023-11-18T07:31:01.286Z,102585.63
2023-11-18T07:34:07.145Z,102579.53
2023-11-18T07:37:14.078Z,102582.13
2023-11-18T07:40:23.628Z,102578.72
2023-11-18T07:43:30.007Z,102585.63
2023-11-18T07:46:33.688Z,102575.31
2023-11-18T07:49:37.691Z,102568.44
2023-11-18T07:52:43.033Z,102561.81
2023-11-18T07:55:49.045Z,102561.81
2023-11-18T07:58:53.835Z,102562.63
2023-11-18T08:01:57.958Z,102569.66
2023-11-18T08:05:01.744Z,102557.03
2023-11-18T08:08:07.137Z,102560.22
2023-11-18T08:11:14.339Z,102558.63
2023-11-18T08:14:18.688Z,102546.78
2023-11-18T08:17:22.477Z,102550.25
2023-11-18T08:20:26.809Z,102547.66
2023-11-18T08:23:32.856Z,102554.50
2023-11-18T08:26:36.972Z,102561.72
2023-11-18T08:29:40.543Z,102551.97
2023-11-18T08:32:46.125Z,102548.31
2023-11-18T08:35:51.894Z,102552.31
2023-11-18T08:38:57.730Z,102540.88
2023-11-18T08:42:01.394Z,102538.50
2023-11-18T08:45:09.551Z,102533.34
2023-11-18T08:48:14.114Z,102537.63
2023-11-18T08:51:18.788Z,102545.50
2023-11-18T08:54:37.451Z,102543.44
2023-11-18T08:57:53.900Z,102547.91
2023-11-18T09:01:07.624Z,102544.56
2023-11-18T09:04:11.772Z,102525.25
2023-11-18T09:07:16.424Z,102523.38
2023-11-18T09:10:22.360Z,102524.13
2023-11-18T09:13:30.019Z,102524.13
2023-11-18T09:16:39.650Z,102522.81
2023-11-18T09:19:43.245Z,102529.69
2023-11-18T09:22:47.094Z,102527.16
2023-11-18T09:25:53.419Z,102526.22
2023-11-18T09:28:57.814Z,102524.53
2023-11-18T09:32:05.690Z,102524.75
2023-11-18T09:35:13.663Z,102523.09
2023-11-18T09:38:17.743Z,102526.69
2023-11-18T09:41:28.498Z,102527.03
2023-11-18T09:44:33.481Z,102512.44
2023-11-18T09:47:43.299Z,102509.72
2023-11-18T09:50:49.973Z,102500.13
2023-11-18T09:53:55.816Z,102497.53
2023-11-18T09:57:11.103Z,102490.84
2023-11-18T10:00:22.687Z,102488.13
2023-11-18T10:03:27.243Z,102490.19
2023-11-18T10:06:35.170Z,102485.91
2023-11-18T10:09:40.673Z,102460.84
2023-11-18T10:12:52.965Z,102459.19
2023-11-18T10:15:58.744Z,102448.03
2023-11-18T10:19:09.917Z,102434.94
2023-11-18T10:22:26.540Z,102423.56
2023-11-18T10:25:30.799Z,102412.38
2023-11-18T10:28:39.032Z,102406.38
2023-11-18T10:31:46.546Z,102407.31
2023-11-18T10:34:51.792Z,102399.63
2023-11-18T10:37:55.538Z,102402.88
2023-11-18T10:41:02.222Z,102408.22
2023-11-18T10:44:15.997Z,102395.34
2023-11-18T10:47:21.819Z,102392.59
2023-11-18T10:50:33.159Z,102375.50
2023-11-18T10:53:38.534Z,102372.00
2023-11-18T10:56:50.328Z,102362.59
2023-11-18T11:00:14.678Z,102358.97
2023-11-18T11:03:19.634Z,102357.34
2023-11-18T11:06:25.432Z,102353.84
2023-11-18T11:09:29.791Z,102350.38
2023-11-18T11:12:53.216Z,102339.13
2023-11-18T11:16:03.182Z,102330.56
2023-11-18T11:19:10.145Z,102321.97
2023-11-18T11:22:22.158Z,102318.59
2023-11-18T11:25:36.549Z,102301.94
2023-11-18T11:28:47.950Z,102296.16
2023-11-18T11:32:13.805Z,102290.94
2023-11-18T11:35:26.160Z,102290.03
2023-11-18T11:38:30.253Z,102279.63
2023-11-18T11:41:35.583Z,102271.09
2023-11-18T11:44:43.655Z,102266.59
2023-11-18T11:47:52.453Z,102262.34
2023-11-18T11:51:16.254Z,102254.72
2023-11-18T11:54:30.242Z,102244.34
2023-11-18T11:57:40.294Z,102240.88
2023-11-18T12:00:44.537Z,102227.06
2023-11-18T12:03:51.132Z,102229.81
2023-11-18T12:07:05.824Z,102223.66
2023-11-18T12:10:22.173Z,102211.50
2023-11-18T12:13:27.669Z,102212.50
2023-11-18T12:17:08.753Z,102195.94
2023-11-18T12:20:43.466Z,102184.72
2023-11-18T12:24:20.413Z,102190.81
2023-11-18T12:27:52.729Z,102196.00
2023-11-18T12:31:07.441Z,102207.38
2023-11-18T12:34:12.245Z,102203.88
2023-11-18T12:37:55.262Z,102194.31
2023-11-18T12:41:01.200Z,102192.72
2023-11-18T12:44:33.002Z,102197.00
2023-11-18T12:47:42.468Z,102203.88
2023-11-18T12:50:48.243Z,102201.34
2023-11-18T12:53:54.975Z,102190.88
2023-11-18T12:56:59.101Z,102184.00
2023-11-18T13:00:05.643Z,102171.84
2023-11-18T13:03:11.958Z,102159.63
2023-11-18T13:06:16.260Z,102155.25
2023-11-18T13:09:27.569Z,102163.06
2023-11-18T13:12:31.453Z,102158.69
2023-11-18T13:15:38.667Z,102134.47
2023-11-18T13:18:50.357Z,102133.56
2023-11-18T13:21:56.021Z,102111.00
2023-11-18T13:25:01.132Z,102112.78
2023-11-18T13:28:07.458Z,102109.34
2023-11-18T13:31:11.458Z,102088.47
2023-11-18T13:34:15.311Z,102085.00
2023-11-18T13:37:23.782Z,102078.94
2023-11-18T13:40:31.124Z,102060.72
2023-11-18T13:43:45.292Z,102046.00
2023-11-18T13:46:51.240Z,102045.13
2023-11-18T13:49:59.705Z,102056.44
2023-11-18T13:53:04.548Z,102054.72
2023-11-18T13:56:11.114Z,102042.59
2023-11-18T13:59:15.550Z,102032.19
2023-11-18T14:02:20.158Z,102025.28
2023-11-18T14:05:25.742Z,102001.84
2023-11-18T14:08:29.511Z,101996.72
2023-11-18T14:11:35.744Z,101991.47
2023-11-18T14:14:39.604Z,101989.69
2023-11-18T14:17:46.132Z,102001.84
2023-11-18T14:20:51.253Z,101998.47
2023-11-18T14:23:57.381Z,102001.91
2023-11-18T14:27:02.435Z,102006.22
2023-11-18T14:30:09.472Z,102003.63
2023-11-18T14:33:13.233Z,102008.81
2023-11-18T14:36:17.128Z,101996.69
2023-11-18T14:39:24.090Z,102001.91
2023-11-18T14:42:29.355Z,102007.13
2023-11-18T14:45:50.087Z,101988.91
2023-11-18T14:48:53.821Z,101966.34
2023-11-18T14:51:57.949Z,101952.41
2023-11-18T14:55:01.945Z,101947.19
2023-11-18T14:58:08.254Z,101959.28
2023-11-18T15:01:13.496Z,101974.97
2023-11-18T15:04:17.249Z,101985.31
2023-11-18T15:07:20.867Z,101973.13
2023-11-18T15:10:26.768Z,101947.13
2023-11-18T15:13:31.741Z,101937.56
2023-11-18T15:16:35.513Z,101923.69
2023-11-18T15:19:39.569Z,101940.13
2023-11-18T15:22:45.491Z,101921.03
2023-11-18T15:25:51.185Z,101921.00
2023-11-18T15:28:58.147Z,101930.59
2023-11-18T15:32:01.933Z,101929.66
2023-11-18T15:35:09.957Z,101934.00
2023-11-18T15:38:18.797Z,101919.25
2023-11-18T15:41:23.624Z,101913.16
2023-11-18T15:44:29.705Z,101913.13
2023-11-18T15:47:33.525Z,101908.75
2023-11-18T15:50:39.122Z,101904.47
2023-11-18T15:53:42.908Z,101897.50
2023-11-18T15:56:47.003Z,101903.56
2023-11-18T15:59:52.140Z,101893.13
2023-11-18T16:03:01.876Z,101897.50
2023-11-18T16:06:07.972Z,101873.19
2023-11-18T16:09:11.667Z,101850.63
2023-11-18T16:12:15.748Z,101843.75
2023-11-18T16:15:21.863Z,101848.09
2023-11-18T16:18:25.611Z,101860.19
2023-11-18T16:21:29.332Z,101854.16
2023-11-18T16:24:33.002Z,101851.56
2023-11-18T16:27:36.714Z,101846.34
2023-11-18T16:30:41.804Z,101845.44
2023-11-18T16:33:46.659Z,101807.28
2023-11-18T16:36:50.726Z,101811.63
2023-11-18T16:39:55.000Z,101822.94
2023-11-18T16:43:01.255Z,101826.41
2023-11-18T16:46:07.609Z,101817.75
2023-11-18T16:49:13.674Z,101803.00
2023-11-18T16:52:17.743Z,101794.28
2023-11-18T16:55:22.506Z,101795.19
2023-11-18T16:58:26.489Z,101803.00
2023-11-18T17:01:31.685Z,101775.25
2023-11-18T17:04:38.205Z,101764.00
2023-11-18T17:07:42.268Z,101758.81
2023-11-18T17:10:52.997Z,101745.78
2023-11-18T17:13:56.671Z,101743.19
2023-11-18T17:17:02.086Z,101727.59
2023-11-18T17:20:10.662Z,101729.31
2023-11-18T17:23:14.403Z,101733.66
2023-11-18T17:26:18.226Z,101721.50
2023-11-18T17:29:22.145Z,101720.66
2023-11-18T17:32:27.497Z,101699.91
2023-11-18T17:35:31.863Z,101699.03
2023-11-18T17:38:37.038Z,101702.47
2023-11-18T17:41:40.651Z,101692.97
2023-11-18T17:44:44.386Z,101681.72
2023-11-18T17:47:49.567Z,101662.63
2023-11-18T17:50:54.803Z,101657.44
2023-11-18T17:53:58.529Z,101653.97
2023-11-18T17:57:02.250Z,101653.97
2023-11-18T18:00:13.204Z,101647.91
2023-11-18T18:03:18.621Z,101634.91
2023-11-18T18:06:22.395Z,101632.31
2023-11-18T18:09:28.679Z,101620.19
2023-11-18T18:12:33.245Z,101627.97
2023-11-18T18:15:39.444Z,101620.19
2023-11-18T18:18:44.562Z,101614.13
2023-11-18T18:21:48.245Z,101597.63
2023-11-18T18:24:51.883Z,101595.03
2023-11-18T18:27:55.554Z,101594.16
2023-11-18T18:30:59.285Z,101592.44
2023-11-18T18:34:04.804Z,101604.56
2023-11-18T18:37:08.900Z,101602.84
2023-11-18T18:40:15.771Z,101593.31
2023-11-18T18:43:19.433Z,101590.66
2023-11-18T18:46:23.103Z,101579.41
2023-11-18T18:49:28.653Z,101567.28
2023-11-18T18:52:32.389Z,101580.28
2023-11-18T18:55:37.212Z,101579.41
2023-11-18T18:58:41.057Z,101565.56
2023-11-18T19:01:46.115Z,101545.63
2023-11-18T19:04:51.396Z,101524.84
2023-11-18T19:07:57.127Z,101509.25
2023-11-18T19:11:01.159Z,101515.31
2023-11-18T19:14:05.038Z,101506.66
2023-11-18T19:17:08.820Z,101518.78
2023-11-18T19:20:15.814Z,101512.69
2023-11-18T19:23:19.916Z,101511.84
2023-11-18T19:26:23.542Z,101488.47
2023-11-18T19:29:27.396Z,101484.13
2023-11-18T19:32:31.267Z,101474.63
2023-11-18T19:35:36.376Z,101469.41
2023-11-18T19:38:40.131Z,101462.47
2023-11-18T19:41:43.896Z,101469.41
2023-11-18T19:44:48.274Z,101466.81
2023-11-18T19:47:52.647Z,101471.13
2023-11-18T19:50:57.659Z,101449.47
2023-11-18T19:54:01.337Z,101459.88
2023-11-18T19:57:05.168Z,101450.34
2023-11-18T20:00:13.036Z,101440.81
2023-11-18T20:03:16.903Z,101432.16
2023-11-18T20:06:22.067Z,101419.16
2023-11-18T20:09:26.767Z,101423.50
2023-11-18T20:12:33.208Z,101430.44
2023-11-18T20:15:38.598Z,101426.97
2023-11-18T20:18:42.326Z,101423.47
2023-11-18T20:21:47.478Z,101414.81
2023-11-18T20:24:51.131Z,101401.81
2023-11-18T20:27:55.678Z,101394.03
2023-11-18T20:30:59.363Z,101388.84
2023-11-18T20:34:03.958Z,101380.16
2023-11-18T20:37:08.941Z,101381.03
2023-11-18T20:40:15.018Z,101372.34
2023-11-18T20:43:18.725Z,101364.53
2023-11-18T20:46:22.407Z,101369.75
2023-11-18T20:49:26.223Z,101353.28
2023-11-18T20:52:33.380Z,101342.88
2023-11-18T20:55:37.081Z,101325.56
2023-11-18T20:58:42.542Z,101327.28
2023-11-18T21:01:47.380Z,101322.97
2023-11-18T21:04:51.208Z,101316.91
2023-11-18T21:07:56.553Z,101304.75
2023-11-18T21:11:00.411Z,101302.16
2023-11-18T21:14:05.534Z,101297.81
2023-11-18T21:17:12.572Z,101295.22
2023-11-18T21:20:16.474Z,101287.41
2023-11-18T21:23:21.578Z,101287.41
2023-11-18T21:26:26.396Z,101289.16
2023-11-18T21:29:30.513Z,101274.41
2023-11-18T21:32:34.229Z,101257.94
2023-11-18T21:35:37.893Z,101260.53
2023-11-18T21:38:43.094Z,101262.22
2023-11-18T21:41:46.927Z,101260.50
2023-11-18T21:44:50.896Z,101244.91
2023-11-18T21:47:56.305Z,101225.84
2023-11-18T21:51:00.238Z,101224.09
2023-11-18T21:54:05.954Z,101231.84
2023-11-18T21:57:10.646Z,101222.34
2023-11-18T22:00:18.153Z,101218.84
2023-11-18T22:03:22.069Z,101225.75
2023-11-18T22:06:25.805Z,101222.31
2023-11-18T22:09:30.961Z,101209.31
2023-11-18T22:12:34.865Z,101198.84
2023-11-18T22:15:38.627Z,101195.44
2023-11-18T22:18:42.389Z,101189.31
2023-11-18T22:21:46.536Z,101183.22
2023-11-18T22:24:53.171Z,101182.34
2023-11-18T22:27:56.876Z,101177.13
2023-11-18T22:31:00.726Z,101174.53
2023-11-18T22:34:04.781Z,101166.72
2023-11-18T22:37:08.412Z,101173.66
2023-11-18T22:40:17.428Z,101165.84
2023-11-18T22:43:22.430Z,101143.28
2023-11-18T22:46:26.169Z,101134.59
2023-11-18T22:49:30.048Z,101126.78
2023-11-18T22:52:33.643Z,101127.69
2023-11-18T22:55:39.613Z,101138.94
2023-11-18T22:58:43.387Z,101143.25
2023-11-18T23:01:47.353Z,101147.53
2023-11-18T23:04:50.963Z,101151.00
2023-11-18T23:07:57.793Z,101148.41
2023-11-18T23:11:03.102Z,101137.09
2023-11-18T23:14:06.962Z,101132.63
2023-11-18T23:17:10.644Z,101131.03
2023-11-18T23:20:14.554Z,101124.88
2023-11-18T23:23:19.234Z,101130.97
2023-11-18T23:26:24.466Z,101129.22
2023-11-18T23:29:28.212Z,101110.97
2023-11-18T23:32:31.824Z,101108.31
2023-11-18T23:35:36.241Z,101096.09
2023-11-18T23:38:40.183Z,101093.53
2023-11-18T23:41:45.208Z,101087.41
2023-11-18T23:44:48.955Z,101076.88
2023-11-18T23:47:52.990Z,101061.31
2023-11-18T23:50:57.031Z,101056.06
2023-11-18T23:54:00.665Z,101055.19
2023-11-18T23:57:06.283Z,101050.84
